createdAt,value
2018-09-28T00:02:53.926Z,4.27
2018-09-28T00:05:57.076Z,3.50
2018-09-28T00:09:00.215Z,4.47
2018-09-28T00:12:03.331Z,5.00
2018-09-28T00:15:06.522Z,3.80
2018-09-28T00:18:09.637Z,5.07
2018-09-28T00:21:12.845Z,4.57
2018-09-28T00:24:15.968Z,4.57
2018-09-28T00:27:19.242Z,5.17
2018-09-28T00:30:22.379Z,5.10
2018-09-28T00:33:25.507Z,3.57
2018-09-28T00:36:28.643Z,5.80
2018-09-28T00:39:31.783Z,4.33
2018-09-28T00:42:34.902Z,5.77
2018-09-28T00:45:38.034Z,6.00
2018-09-28T00:48:41.161Z,4.73
2018-09-28T00:51:44.332Z,4.63
2018-09-28T00:54:47.463Z,5.27
2018-09-28T00:57:50.607Z,5.83
2018-09-28T01:00:53.702Z,5.87
2018-09-28T01:03:56.814Z,5.93
2018-09-28T01:06:59.915Z,4.90
2018-09-28T01:10:03.054Z,5.73
2018-09-28T01:13:06.211Z,6.60
2018-09-28T01:16:09.343Z,4.87
2018-09-28T01:19:12.491Z,4.20
2018-09-28T01:22:15.630Z,5.57
2018-09-28T01:25:18.739Z,4.83
2018-09-28T01:28:21.862Z,4.40
2018-09-28T01:31:24.970Z,5.07
2018-09-28T01:34:28.105Z,5.13
2018-09-28T01:37:31.238Z,5.60
2018-09-28T01:40:34.381Z,5.00
2018-09-28T01:43:37.522Z,5.00
2018-09-28T01:46:40.638Z,5.07
2018-09-28T01:49:43.757Z,4.43
2018-09-28T01:52:46.877Z,6.93
2018-09-28T01:55:50.002Z,5.90
2018-09-28T01:58:53.097Z,5.67
2018-09-28T02:01:56.277Z,5.33
2018-09-28T02:04:59.385Z,6.83
2018-09-28T02:08:02.546Z,4.27
2018-09-28T02:11:05.773Z,5.53
2018-09-28T02:14:08.891Z,4.57
2018-09-28T02:17:12.031Z,6.70
2018-09-28T02:20:15.125Z,6.17
2018-09-28T02:23:18.249Z,5.67
2018-09-28T02:26:21.357Z,5.40
2018-09-28T02:29:24.521Z,6.10
2018-09-28T02:32:27.666Z,7.00
2018-09-28T02:35:30.792Z,5.37
2018-09-28T02:38:33.902Z,6.93
2018-09-28T02:41:37.036Z,7.40
2018-09-28T02:44:40.267Z,8.50
2018-09-28T02:47:43.390Z,6.90
2018-09-28T02:50:46.514Z,5.67
2018-09-28T02:53:49.644Z,5.33
2018-09-28T02:56:52.825Z,8.53
2018-09-28T02:59:55.866Z,8.70
2018-09-28T03:02:58.999Z,6.40
2018-09-28T03:06:02.149Z,7.53
2018-09-28T03:09:07.224Z,7.30
2018-09-28T03:12:10.320Z,7.80
2018-09-28T03:15:13.453Z,7.83
2018-09-28T03:18:16.574Z,7.23
2018-09-28T03:21:19.714Z,6.37
2018-09-28T03:24:22.823Z,7.13
2018-09-28T03:27:25.965Z,6.90
2018-09-28T03:30:29.095Z,8.47
2018-09-28T03:33:32.286Z,8.17
2018-09-28T03:36:35.415Z,6.93
2018-09-28T03:39:38.622Z,7.30
2018-09-28T03:42:41.770Z,7.13
2018-09-28T03:45:44.933Z,8.17
2018-09-28T03:48:48.051Z,9.20
2018-09-28T03:51:51.167Z,9.97
2018-09-28T03:54:54.298Z,8.27
2018-09-28T03:57:57.447Z,9.37
2018-09-28T04:01:00.603Z,11.77
2018-09-28T04:04:03.717Z,8.00
2018-09-28T04:07:06.930Z,8.13
2018-09-28T04:10:10.034Z,8.97
2018-09-28T04:13:13.214Z,11.20
2018-09-28T04:16:16.306Z,10.17
2018-09-28T04:19:19.423Z,10.13
2018-09-28T04:22:22.554Z,10.13
2018-09-28T04:25:25.698Z,10.13
2018-09-28T04:28:28.857Z,11.43
2018-09-28T04:31:31.962Z,11.87
2018-09-28T04:34:35.074Z,8.13
2018-09-28T04:37:38.191Z,12.80
2018-09-28T04:40:41.317Z,20.97
2018-09-28T04:43:44.431Z,11.60
2018-09-28T04:46:47.611Z,13.73
2018-09-28T04:49:50.697Z,9.37
2018-09-28T04:52:53.888Z,8.73
2018-09-28T04:55:57.001Z,11.97
2018-09-28T04:59:00.133Z,9.93
2018-09-28T05:02:03.230Z,10.77
2018-09-28T05:05:06.511Z,10.00
2018-09-28T05:11:19.119Z,10.23
2018-09-28T05:14:22.254Z,13.67
2018-09-28T05:17:25.354Z,11.57
2018-09-28T05:20:28.549Z,10.00
2018-09-28T05:23:31.649Z,12.87
2018-09-28T05:26:34.766Z,12.73
2018-09-28T05:29:37.894Z,12.17
2018-09-28T05:32:41.267Z,9.63
2018-09-28T05:35:44.125Z,11.47
2018-09-28T05:38:47.247Z,10.40
2018-09-28T05:41:50.402Z,9.70
2018-09-28T05:44:53.518Z,12.27
2018-09-28T05:47:56.693Z,7.73
2018-09-28T05:50:59.813Z,9.73
2018-09-28T05:54:02.966Z,9.77
2018-09-28T05:57:06.193Z,9.60
2018-09-28T06:01:17.505Z,11.43
2018-09-28T06:05:23.675Z,9.30
2018-09-28T06:08:26.775Z,12.30
2018-09-28T06:11:29.935Z,13.43
2018-09-28T06:14:33.033Z,15.10
2018-09-28T06:17:36.166Z,14.33
2018-09-28T06:20:39.281Z,10.73
2018-09-28T06:23:42.414Z,12.67
2018-09-28T06:26:45.557Z,14.30
2018-09-28T06:29:48.731Z,13.63
2018-09-28T06:32:51.877Z,15.00
2018-09-28T06:35:55.047Z,14.97
2018-09-28T06:38:58.142Z,12.87
2018-09-28T06:42:01.371Z,14.33
2018-09-28T06:45:04.433Z,14.13
2018-09-28T06:48:07.593Z,14.70
2018-09-28T06:51:10.722Z,21.03
2018-09-28T06:54:13.870Z,18.10
2018-09-28T06:57:16.922Z,14.70
2018-09-28T07:00:20.124Z,14.83
2018-09-28T07:03:23.174Z,13.83
2018-09-28T07:06:26.341Z,15.87
2018-09-28T07:09:30.363Z,16.37
2018-09-28T07:12:33.545Z,19.77
2018-09-28T07:15:36.665Z,21.90
2018-09-28T07:18:39.799Z,23.77
2018-09-28T07:21:44.018Z,23.57
2018-09-28T07:24:47.247Z,24.80
2018-09-28T07:27:50.281Z,28.50
2018-09-28T07:30:53.423Z,26.30
2018-09-28T07:33:56.541Z,34.47
2018-09-28T07:36:59.743Z,29.03
2018-09-28T07:40:02.835Z,34.97
2018-09-28T07:43:06.030Z,32.97
2018-09-28T07:46:09.194Z,37.70
2018-09-28T07:49:12.364Z,38.27
2018-09-28T07:52:15.455Z,35.77
2018-09-28T07:55:18.606Z,34.07
2018-09-28T07:58:21.721Z,32.33
2018-09-28T08:01:24.905Z,34.03
2018-09-28T08:04:28.057Z,33.93
2018-09-28T08:07:31.233Z,36.47
2018-09-28T08:10:34.401Z,35.40
2018-09-28T08:13:37.510Z,35.97
2018-09-28T08:16:40.673Z,28.50
2018-09-28T08:19:43.836Z,26.37
2018-09-28T08:22:46.943Z,24.87
2018-09-28T08:25:50.110Z,18.67
2018-09-28T08:28:53.233Z,19.30
2018-09-28T08:31:56.374Z,21.33
2018-09-28T08:34:59.522Z,16.13
2018-09-28T08:38:02.633Z,16.63
2018-09-28T08:41:05.933Z,16.63
2018-09-28T08:44:09.046Z,18.80
2018-09-28T08:47:12.426Z,17.87
2018-09-28T08:50:15.521Z,19.87
2018-09-28T08:53:18.663Z,17.63
2018-09-28T08:56:21.797Z,18.10
2018-09-28T08:59:25.118Z,14.17
2018-09-28T09:02:28.292Z,14.03
2018-09-28T09:05:31.429Z,15.23
2018-09-28T09:08:34.599Z,12.60
2018-09-28T09:11:37.738Z,13.23
2018-09-28T09:14:40.890Z,10.83
2018-09-28T09:17:43.992Z,16.90
2018-09-28T09:20:47.130Z,11.13
2018-09-28T09:23:50.275Z,10.53
2018-09-28T09:26:53.378Z,11.30
2018-09-28T09:29:56.484Z,10.83
2018-09-28T09:32:59.609Z,11.47
2018-09-28T09:36:02.765Z,9.53
2018-09-28T09:39:08.002Z,12.13
2018-09-28T09:42:11.379Z,9.73
2018-09-28T09:45:14.505Z,11.67
2018-09-28T09:48:17.668Z,9.70
2018-09-28T09:51:20.831Z,10.13
2018-09-28T09:54:23.957Z,11.57
2018-09-28T09:57:27.122Z,10.37
2018-09-28T10:00:35.822Z,7.10
2018-09-28T10:03:44.519Z,9.00
2018-09-28T10:06:47.621Z,10.43
2018-09-28T10:09:50.764Z,11.07
2018-09-28T10:12:53.908Z,10.33
2018-09-28T10:15:57.053Z,12.80
2018-09-28T10:19:00.170Z,9.23
2018-09-28T10:22:05.763Z,11.97
2018-09-28T10:25:08.939Z,7.07
2018-09-28T10:28:12.092Z,8.50
2018-09-28T10:31:16.218Z,8.13
2018-09-28T10:34:19.374Z,8.23
2018-09-28T10:40:43.161Z,9.20
2018-09-28T10:43:46.154Z,9.37
2018-09-28T10:46:49.345Z,6.33
2018-09-28T10:49:52.839Z,6.27
2018-09-28T10:52:56.712Z,7.67
2018-09-28T10:55:59.787Z,6.80
2018-09-28T10:59:02.915Z,10.00
2018-09-28T11:02:06.187Z,11.60
2018-09-28T11:05:09.331Z,6.63
2018-09-28T11:08:12.973Z,7.60
2018-09-28T11:11:16.823Z,7.80
2018-09-28T11:14:19.989Z,6.83
2018-09-28T11:17:23.117Z,7.40
2018-09-28T11:20:26.210Z,8.13
2018-09-28T11:23:29.506Z,8.10
2018-09-28T11:26:32.621Z,9.37
2018-09-28T11:29:35.794Z,11.13
2018-09-28T11:32:38.885Z,5.40
2018-09-28T11:35:42.009Z,7.10
2018-09-28T11:38:45.147Z,6.07
2018-09-28T11:41:48.506Z,11.07
2018-09-28T11:44:51.646Z,5.50
2018-09-28T11:47:54.802Z,8.50
2018-09-28T11:50:57.913Z,7.07
2018-09-28T11:54:01.078Z,6.33
2018-09-28T11:57:04.205Z,5.53
2018-09-28T12:00:07.405Z,10.20
2018-09-28T12:03:10.509Z,8.53
2018-09-28T12:06:13.686Z,6.90
2018-09-28T12:09:16.785Z,6.67
2018-09-28T12:12:19.964Z,6.33
2018-09-28T12:15:23.093Z,3.37
2018-09-28T12:18:26.286Z,6.67
2018-09-28T12:21:29.366Z,7.40
2018-09-28T12:24:32.518Z,9.13
2018-09-28T12:27:35.688Z,5.97
2018-09-28T12:30:38.821Z,9.00
2018-09-28T12:33:41.923Z,10.23
2018-09-28T12:36:45.038Z,8.13
2018-09-28T12:39:48.285Z,9.40
2018-09-28T12:42:51.327Z,7.20
2018-09-28T12:45:54.439Z,8.83
2018-09-28T12:48:57.590Z,8.87
2018-09-28T12:52:00.737Z,6.83
2018-09-28T12:55:03.842Z,7.63
2018-09-28T12:58:07.098Z,6.27
2018-09-28T13:01:10.378Z,5.33
2018-09-28T13:04:18.210Z,8.80
2018-09-28T13:07:21.338Z,8.87
2018-09-28T13:10:24.426Z,6.60
2018-09-28T13:13:27.558Z,8.20
2018-09-28T13:16:30.661Z,10.20
2018-09-28T13:19:33.802Z,7.47
2018-09-28T13:22:36.961Z,6.70
2018-09-28T13:25:40.133Z,6.37
2018-09-28T13:28:43.341Z,8.37
2018-09-28T13:31:46.518Z,27.23
2018-09-28T13:34:49.609Z,10.50
2018-09-28T13:37:52.735Z,9.93
2018-09-28T13:40:55.846Z,6.77
2018-09-28T13:43:58.989Z,8.10
2018-09-28T13:47:02.106Z,5.37
2018-09-28T13:50:05.476Z,6.60
2018-09-28T13:53:08.578Z,4.47
2018-09-28T13:56:11.755Z,9.23
2018-09-28T13:59:14.861Z,6.83
2018-09-28T14:02:18.096Z,7.37
2018-09-28T14:05:21.283Z,8.13
2018-09-28T14:08:24.447Z,5.77
2018-09-28T14:11:27.558Z,4.67
2018-09-28T14:14:30.703Z,10.00
2018-09-28T14:17:33.835Z,7.07
2018-09-28T14:20:36.998Z,7.30
2018-09-28T14:23:40.115Z,8.07
2018-09-28T14:26:43.307Z,6.20
2018-09-28T14:29:46.385Z,7.10
2018-09-28T14:32:49.568Z,6.03
2018-09-28T14:35:52.702Z,6.40
2018-09-28T14:38:55.806Z,5.63
2018-09-28T14:41:59.186Z,5.50
2018-09-28T14:45:02.242Z,11.97
2018-09-28T14:48:05.407Z,7.60
2018-09-28T14:51:08.506Z,3.57
2018-09-28T14:54:11.710Z,6.10
2018-09-28T14:57:14.865Z,4.57
2018-09-28T15:00:19.046Z,4.77
2018-09-28T15:03:22.161Z,6.23
2018-09-28T15:06:29.323Z,2.90
2018-09-28T15:09:32.451Z,4.43
2018-09-28T15:12:35.591Z,3.13
2018-09-28T15:15:38.773Z,2.23
2018-09-28T15:18:41.963Z,4.13
2018-09-28T15:21:45.172Z,4.77
2018-09-28T15:24:48.290Z,6.17
2018-09-28T15:27:51.415Z,4.47
2018-09-28T15:30:54.524Z,5.60
2018-09-28T15:33:57.661Z,6.27
2018-09-28T15:37:00.802Z,4.67
2018-09-28T15:40:04.118Z,5.20
2018-09-28T15:43:07.550Z,4.73
2018-09-28T15:46:10.671Z,9.93
2018-09-28T15:49:13.801Z,5.67
2018-09-28T15:52:16.938Z,7.53
2018-09-28T15:55:20.091Z,4.83
2018-09-28T15:58:23.238Z,4.90
2018-09-28T16:01:26.365Z,4.57
2018-09-28T16:04:29.477Z,3.83
2018-09-28T16:07:32.607Z,4.60
2018-09-28T16:10:35.733Z,6.50
2018-09-28T16:13:38.868Z,4.03
2018-09-28T16:16:41.992Z,6.27
2018-09-28T16:19:45.138Z,6.50
2018-09-28T16:22:48.247Z,5.33
2018-09-28T16:25:54.761Z,5.40
2018-09-28T16:28:57.874Z,3.87
2018-09-28T16:32:02.126Z,3.03
2018-09-28T16:35:05.550Z,4.77
2018-09-28T16:38:08.677Z,4.53
2018-09-28T16:41:11.842Z,6.57
2018-09-28T16:44:14.986Z,5.03
2018-09-28T16:47:18.123Z,5.33
2018-09-28T16:50:21.246Z,5.47
2018-09-28T16:53:24.336Z,7.97
2018-09-28T16:56:27.523Z,9.40
2018-09-28T16:59:30.631Z,8.33
2018-09-28T17:02:33.781Z,7.03
2018-09-28T17:05:36.934Z,5.50
2018-09-28T17:08:40.072Z,7.30
2018-09-28T17:11:43.198Z,6.80
2018-09-28T17:14:46.323Z,5.90
2018-09-28T17:17:49.452Z,3.07
2018-09-28T17:20:52.590Z,5.27
2018-09-28T17:23:55.824Z,4.77
2018-09-28T17:26:58.936Z,7.10
2018-09-28T17:30:02.046Z,5.00
2018-09-28T17:33:05.174Z,11.87
2018-09-28T17:36:08.321Z,6.13
2018-09-28T17:39:12.505Z,5.77
2018-09-28T17:42:15.654Z,5.10
2018-09-28T17:45:18.746Z,6.77
2018-09-28T17:48:21.874Z,7.17
2018-09-28T17:51:24.996Z,4.63
2018-09-28T17:54:28.134Z,7.43
2018-09-28T17:57:31.260Z,5.63
2018-09-28T18:00:34.398Z,5.80
2018-09-28T18:03:37.514Z,4.90
2018-09-28T18:06:40.613Z,6.23
2018-09-28T18:09:43.737Z,3.73
2018-09-28T18:12:46.864Z,5.97
2018-09-28T18:15:50.373Z,8.77
2018-09-28T18:18:53.489Z,4.27
2018-09-28T18:21:56.798Z,4.20
2018-09-28T18:24:59.897Z,6.47
2018-09-28T18:28:03.056Z,4.93
2018-09-28T18:31:07.788Z,4.87
2018-09-28T18:34:12.276Z,7.20
2018-09-28T18:37:16.894Z,5.80
2018-09-28T18:40:20.429Z,9.00
2018-09-28T18:43:24.087Z,5.23
2018-09-28T18:46:27.381Z,5.93
2018-09-28T18:49:31.371Z,6.30
2018-09-28T18:52:36.020Z,8.47
2018-09-28T18:55:39.193Z,4.27
2018-09-28T18:58:42.356Z,5.13
2018-09-28T19:01:45.487Z,7.90
2018-09-28T19:04:48.633Z,4.83
2018-09-28T19:07:51.846Z,3.60
2018-09-28T19:10:55.034Z,8.17
2018-09-28T19:13:58.574Z,4.90
2018-09-28T19:17:03.143Z,8.63
2018-09-28T19:20:07.149Z,4.50
2018-09-28T19:23:11.718Z,9.73
2018-09-28T19:26:15.300Z,8.80
2018-09-28T19:29:18.426Z,5.93
2018-09-28T19:32:29.286Z,8.63
2018-09-28T19:35:32.454Z,7.33
2018-09-28T19:38:35.599Z,8.20
2018-09-28T19:41:39.603Z,7.87
2018-09-28T19:44:42.729Z,9.50
2018-09-28T19:47:45.919Z,9.33
2018-09-28T19:50:49.166Z,6.83
2018-09-28T19:53:58.967Z,6.50
2018-09-28T19:57:02.895Z,7.53
2018-09-28T20:00:06.734Z,8.67
2018-09-28T20:03:12.629Z,5.60
2018-09-28T20:06:19.845Z,4.67
2018-09-28T20:09:23.127Z,6.30
2018-09-28T20:12:26.297Z,6.83
2018-09-28T20:15:29.412Z,8.30
2018-09-28T20:18:32.557Z,7.77
2018-09-28T20:21:35.673Z,8.63
2018-09-28T20:24:38.838Z,6.20
2018-09-28T20:27:41.962Z,8.37
2018-09-28T20:30:45.080Z,8.07
2018-09-28T20:33:48.167Z,6.13
2018-09-28T20:36:51.306Z,9.23
2018-09-28T20:39:54.409Z,6.83
2018-09-28T20:42:57.534Z,5.03
2018-09-28T20:46:00.631Z,5.97
2018-09-28T20:49:03.830Z,4.60
2018-09-28T20:52:07.098Z,7.10
2018-09-28T20:55:10.218Z,6.13
2018-09-28T20:58:13.375Z,7.27
2018-09-28T21:01:16.506Z,6.93
2018-09-28T21:04:19.646Z,9.47
2018-09-28T21:07:22.777Z,8.03
2018-09-28T21:10:25.889Z,6.33
2018-09-28T21:13:29.075Z,5.43
2018-09-28T21:16:32.127Z,4.43
2018-09-28T21:19:35.246Z,8.03
2018-09-28T21:25:48.012Z,6.97
2018-09-28T21:28:51.158Z,7.37
2018-09-28T21:31:54.254Z,6.30
2018-09-28T21:34:57.398Z,5.37
2018-09-28T21:38:00.722Z,6.37
2018-09-28T21:41:03.821Z,4.80
2018-09-28T21:44:07.503Z,5.43
2018-09-28T21:47:10.645Z,4.80
2018-09-28T21:50:13.791Z,6.37
2018-09-28T21:53:16.961Z,7.07
2018-09-28T21:56:20.301Z,8.60
2018-09-28T21:59:23.445Z,9.80
2018-09-28T22:02:35.050Z,7.47
2018-09-28T22:05:38.178Z,5.00
2018-09-28T22:08:41.270Z,7.47
2018-09-28T22:11:44.430Z,10.70
2018-09-28T22:14:47.596Z,5.37
2018-09-28T22:17:50.714Z,4.47
2018-09-28T22:20:53.854Z,5.60
2018-09-28T22:23:56.954Z,9.80
2018-09-28T22:27:00.096Z,7.20
2018-09-28T22:30:03.194Z,6.37
2018-09-28T22:33:06.333Z,5.70
2018-09-28T22:36:09.429Z,6.87
2018-09-28T22:39:12.758Z,6.90
2018-09-28T22:42:15.885Z,7.33
2018-09-28T22:45:19.039Z,5.63
2018-09-28T22:48:22.190Z,6.83
2018-09-28T22:51:25.294Z,6.67
2018-09-28T22:54:28.406Z,7.10
2018-09-28T22:57:31.748Z,10.87
2018-09-28T23:00:34.853Z,4.43
2018-09-28T23:03:37.978Z,8.43
2018-09-28T23:06:41.094Z,7.10
2018-09-28T23:09:44.210Z,6.83
2018-09-28T23:12:47.426Z,7.70
2018-09-28T23:15:50.554Z,6.27
2018-09-28T23:18:53.650Z,3.77
2018-09-28T23:21:56.825Z,7.13
2018-09-28T23:24:59.909Z,4.43
2018-09-28T23:28:03.045Z,9.27
2018-09-28T23:31:06.146Z,6.40
2018-09-28T23:34:09.283Z,7.87
2018-09-28T23:37:12.395Z,3.07
2018-09-28T23:40:15.518Z,8.73
2018-09-28T23:43:18.797Z,11.67
2018-09-28T23:46:21.924Z,7.63
2018-09-28T23:49:25.019Z,6.57
2018-09-28T23:52:28.190Z,7.67
2018-09-28T23:55:31.286Z,6.40
2018-09-28T23:58:34.472Z,4.60
